Time;durP1;ratioP1;P1;durP2;ratioP2;P2;SDS_P1;SDS_P2;PMS_P1;PMS_P2;Temp;Humidity;BMP_temperature;BMP_pressure;BME280_temperature;BME280_humidity;BME280_pressure;Samples;Min_cycle;Max_cycle;Signal;HPM_P1;HPM_P2
2022/10/23 00:02:04;;;;;;;4.70;1.73;;;17.50;75.90;;;;;;21154796;28;20134;-63
2022/10/23 00:12:06;;;;;;;3.65;2.08;;;17.50;76.00;;;;;;21177942;28;20138;-63
2022/10/23 00:22:10;;;;;;;4.13;2.30;;;17.50;75.70;;;;;;21177066;28;20422;-62
2022/10/23 00:32:11;;;;;;;6.35;2.53;;;17.40;75.70;;;;;;21175820;28;20518;-65
2022/10/23 00:42:16;;;;;;;4.95;2.75;;;17.60;75.70;;;;;;21175123;28;20071;-63
2022/10/23 00:52:18;;;;;;;3.58;2.38;;;17.60;76.20;;;;;;21173952;28;20044;-65
2022/10/23 01:02:19;;;;;;;4.18;2.20;;;17.50;76.90;;;;;;21155866;28;20043;-64
2022/10/23 01:12:33;;;;;;;3.67;2.10;;;17.30;77.30;;;;;;21171678;28;20052;-65
2022/10/23 01:22:54;;;;;;;6.78;2.72;;;17.30;77.40;;;;;;21171938;28;20051;-60
2022/10/23 01:33:13;;;;;;;5.32;1.90;;;17.40;77.00;;;;;;21171057;28;20135;-60
2022/10/23 01:43:30;;;;;;;3.47;1.58;;;17.60;76.30;;;;;;21169918;28;20051;-61
2022/10/23 01:53:40;;;;;;;4.10;1.35;;;17.70;76.30;;;;;;21169461;28;20079;-61
2022/10/23 02:03:45;;;;;;;4.80;2.10;;;17.80;76.10;;;;;;21169299;28;20043;-60
2022/10/23 02:14:16;;;;;;;5.13;1.80;;;17.90;75.90;;;;;;21167189;28;20142;-62
2022/10/23 02:24:38;;;;;;;5.03;1.65;;;18.00;75.50;;;;;;21147447;28;20384;-64
2022/10/23 02:34:40;;;;;;;5.00;1.80;;;18.00;75.30;;;;;;21166180;28;20058;-64
2022/10/23 02:44:58;;;;;;;4.60;2.40;;;18.10;75.00;;;;;;21165373;28;20439;-60
2022/10/23 02:55:50;;;;;;;3.97;1.90;;;18.20;74.60;;;;;;21165343;28;20079;-63
2022/10/23 03:05:52;;;;;;;5.70;1.80;;;18.20;74.50;;;;;;20740844;28;20133;-61
2022/10/23 03:15:55;;;;;;;3.47;1.93;;;18.20;74.50;;;;;;20739603;28;20050;-63
2022/10/23 03:25:58;;;;;;;6.40;1.70;;;18.20;74.10;;;;;;20739243;28;20442;-62
2022/10/23 03:36:02;;;;;;;4.30;1.40;;;18.10;74.20;;;;;;21097417;28;20491;-61
2022/10/23 03:46:08;;;;;;;6.28;1.70;;;18.20;73.40;;;;;;21179188;28;20093;-65
2022/10/23 03:56:10;;;;;;;3.15;1.38;;;18.20;72.50;;;;;;21178451;28;20043;-61
2022/10/23 04:06:12;;;;;;;4.47;1.98;;;18.20;71.60;;;;;;21177844;28;20040;-63
2022/10/23 04:16:14;;;;;;;5.60;1.13;;;18.30;70.40;;;;;;21178295;28;20048;-63
2022/10/23 04:26:16;;;;;;;4.70;1.52;;;18.20;70.40;;;;;;21176574;28;20040;-63
2022/10/23 04:36:18;;;;;;;4.25;1.83;;;18.20;70.90;;;;;;21175330;28;20096;-62
2022/10/23 04:46:20;;;;;;;4.88;2.28;;;18.20;70.70;;;;;;21173951;28;20063;-62
2022/10/23 04:56:22;;;;;;;3.17;1.83;;;18.20;70.70;;;;;;21175123;28;20048;-62
2022/10/23 05:06:24;;;;;;;3.50;1.48;;;18.20;71.10;;;;;;21173166;28;20047;-62
2022/10/23 05:16:49;;;;;;;5.00;2.10;;;18.10;71.30;;;;;;21154942;28;20056;-61
2022/10/23 05:26:52;;;;;;;5.38;2.10;;;18.20;71.00;;;;;;21171361;28;20051;-61
2022/10/23 05:36:55;;;;;;;3.77;2.20;;;18.10;71.40;;;;;;21171570;28;20475;-61
2022/10/23 05:46:57;;;;;;;4.35;1.75;;;18.10;71.50;;;;;;21169362;28;20052;-63
2022/10/23 05:56:59;;;;;;;6.53;2.83;;;18.10;71.40;;;;;;21169238;28;20503;-61
2022/10/23 06:07:02;;;;;;;6.05;3.20;;;18.10;70.70;;;;;;21168830;28;20052;-64
2022/10/23 06:17:04;;;;;;;4.95;2.30;;;18.00;71.40;;;;;;21167652;28;20055;-64
2022/10/23 06:27:06;;;;;;;5.30;2.88;;;17.80;72.40;;;;;;21166700;28;20048;-64
2022/10/23 06:37:08;;;;;;;7.38;3.15;;;17.70;72.90;;;;;;21167061;28;20051;-62
2022/10/23 06:47:11;;;;;;;5.85;2.65;;;17.70;73.10;;;;;;21164669;28;20062;-61
2022/10/23 06:57:13;;;;;;;4.67;2.50;;;17.70;72.20;;;;;;21164447;28;20043;-64
2022/10/23 07:07:15;;;;;;;5.15;2.67;;;17.70;71.80;;;;;;21164231;28;20046;-62
2022/10/23 07:17:17;;;;;;;7.97;5.78;;;17.80;70.50;;;;;;21163620;28;20545;-61
2022/10/23 07:27:19;;;;;;;8.30;6.03;;;18.00;70.00;;;;;;21163489;28;20052;-63
2022/10/23 07:37:21;;;;;;;13.63;7.30;;;18.00;69.10;;;;;;21161977;28;20052;-65
2022/10/23 07:47:23;;;;;;;11.90;6.93;;;18.10;68.00;;;;;;21161896;28;20047;-62
2022/10/23 07:57:25;;;;;;;13.10;4.97;;;18.10;67.80;;;;;;21162218;28;20051;-60
2022/10/23 08:07:27;;;;;;;10.18;5.05;;;18.20;68.10;;;;;;21161740;28;20044;-60
2022/10/23 08:17:29;;;;;;;7.38;3.10;;;18.20;67.40;;;;;;21161947;28;20055;-62
2022/10/23 08:27:32;;;;;;;8.38;2.92;;;18.40;66.70;;;;;;21176658;28;20093;-63
2022/10/23 08:37:33;;;;;;;5.70;3.35;;;18.40;66.30;;;;;;21176125;28;20051;-61
2022/10/23 08:47:49;;;;;;;4.32;1.88;;;18.70;64.80;;;;;;21175354;28;20066;-63
2022/10/23 08:58:06;;;;;;;5.53;2.10;;;18.70;65.60;;;;;;21174198;28;20044;-62
2022/10/23 09:08:26;;;;;;;5.53;2.13;;;18.80;66.00;;;;;;21157104;28;20051;-63
2022/10/23 09:18:30;;;;;;;4.95;1.60;;;18.70;65.70;;;;;;21173124;28;20341;-64
2022/10/23 09:28:41;;;;;;;4.47;1.35;;;18.90;65.00;;;;;;21154417;28;20048;-64
2022/10/23 09:38:49;;;;;;;4.28;1.40;;;18.90;65.90;;;;;;21171013;28;20105;-61
2022/10/23 09:48:57;;;;;;;3.45;1.63;;;18.70;66.50;;;;;;21169803;28;20437;-63
2022/10/23 09:59:15;;;;;;;2.50;0.95;;;18.70;66.70;;;;;;21169311;28;20055;-61
2022/10/23 10:09:17;;;;;;;1.58;0.80;;;18.70;66.70;;;;;;21168779;28;20459;-64
2022/10/23 10:19:57;;;;;;;2.25;1.10;;;18.70;65.90;;;;;;21167452;28;20077;-64
2022/10/23 10:30:04;;;;;;;2.50;1.38;;;18.70;66.10;;;;;;21167468;28;20459;-62
2022/10/23 10:40:17;;;;;;;2.55;1.02;;;18.30;67.60;;;;;;21147079;28;20054;-60
2022/10/23 10:50:32;;;;;;;3.17;0.93;;;18.70;66.50;;;;;;21164764;28;20431;-62
2022/10/23 11:00:34;;;;;;;3.22;1.33;;;18.80;65.30;;;;;;21164355;28;20056;-65
2022/10/23 11:10:40;;;;;;;5.75;2.00;;;18.70;64.80;;;;;;21163859;28;20086;-62
2022/10/23 11:20:55;;;;;;;5.05;1.52;;;18.90;63.40;;;;;;21163951;28;20051;-64
2022/10/23 11:31:05;;;;;;;8.45;1.80;;;18.80;63.10;;;;;;21144388;28;20100;-63
2022/10/23 11:41:16;;;;;;;3.58;1.45;;;18.70;67.60;;;;;;21162203;28;20044;-62
2022/10/23 11:51:37;;;;;;;7.00;1.75;;;18.70;67.80;;;;;;21161664;28;20062;-64
2022/10/23 12:01:41;;;;;;;11.48;3.10;;;18.70;69.10;;;;;;21177749;28;20044;-63
2022/10/23 12:11:47;;;;;;;5.80;1.92;;;18.50;69.00;;;;;;21177264;28;20054;-65
2022/10/23 12:22:10;;;;;;;7.75;1.90;;;18.50;73.20;;;;;;21177819;28;20048;-64
2022/10/23 12:32:37;;;;;;;6.63;2.42;;;18.20;72.60;;;;;;21176826;28;20035;-63
2022/10/23 12:42:39;;;;;;;9.05;3.20;;;18.20;70.90;;;;;;21176685;28;20043;-62
2022/10/23 12:53:00;;;;;;;9.55;4.07;;;18.00;70.40;;;;;;21174877;28;20072;-62
2022/10/23 13:03:02;;;;;;;6.53;2.22;;;18.00;71.00;;;;;;21174409;28;20050;-62
2022/10/23 13:13:06;;;;;;;6.17;2.07;;;17.80;73.00;;;;;;21172497;28;20044;-63
2022/10/23 13:23:15;;;;;;;8.38;2.70;;;18.00;74.20;;;;;;21171466;28;20108;-64
2022/10/23 13:33:24;;;;;;;7.97;2.92;;;18.20;73.10;;;;;;21171077;28;20055;-66
2022/10/23 13:43:29;;;;;;;5.95;1.80;;;18.40;72.70;;;;;;21169551;28;20179;-63
2022/10/23 13:53:31;;;;;;;4.80;1.50;;;18.40;73.90;;;;;;21170710;28;20054;-62
2022/10/23 14:03:34;;;;;;;3.42;1.58;;;18.60;72.50;;;;;;21168839;28;20040;-64
2022/10/23 14:13:36;;;;;;;7.85;2.28;;;18.60;72.20;;;;;;21167384;28;20104;-64
2022/10/23 14:23:39;;;;;;;7.85;1.60;;;18.70;73.00;;;;;;21167677;28;20408;-64
2022/10/23 14:33:41;;;;;;;7.20;2.17;;;18.80;72.70;;;;;;21166676;28;20411;-65
2022/10/23 14:43:43;;;;;;;5.63;1.75;;;19.10;70.40;;;;;;21146722;28;20054;-63
2022/10/23 14:53:46;;;;;;;5.20;1.73;;;19.10;69.10;;;;;;21165831;28;20054;-64
2022/10/23 15:03:53;;;;;;;7.30;1.57;;;19.00;69.50;;;;;;21164544;28;20044;-64
2022/10/23 15:13:55;;;;;;;5.75;2.17;;;19.10;69.20;;;;;;21163068;28;20466;-66
2022/10/23 15:23:59;;;;;;;5.40;1.70;;;19.00;69.40;;;;;;21162806;28;20089;-64
2022/10/23 15:34:03;;;;;;;6.30;2.00;;;19.00;68.90;;;;;;21161018;28;20134;-65
2022/10/23 15:44:07;;;;;;;7.28;1.75;;;18.90;70.30;;;;;;21162121;28;20419;-64
2022/10/23 15:54:15;;;;;;;7.05;2.90;;;19.00;71.90;;;;;;21161525;28;20101;-64
2022/10/23 16:04:17;;;;;;;6.75;2.08;;;19.10;70.30;;;;;;21160738;28;20047;-63
2022/10/23 16:14:19;;;;;;;3.75;2.40;;;19.00;69.80;;;;;;21159809;28;20088;-64
2022/10/23 16:24:21;;;;;;;4.80;2.13;;;19.00;68.60;;;;;;21159645;28;20453;-63
2022/10/23 16:34:23;;;;;;;3.85;1.38;;;18.90;69.50;;;;;;21140536;28;20048;-65
2022/10/23 16:44:25;;;;;;;7.43;2.67;;;18.90;69.40;;;;;;21169565;28;20059;-64
2022/10/23 16:54:26;;;;;;;9.35;2.00;;;18.70;73.10;;;;;;21173697;28;20120;-63
2022/10/23 17:04:28;;;;;;;4.32;1.58;;;18.60;73.50;;;;;;21172599;28;20047;-63
2022/10/23 17:14:30;;;;;;;6.32;2.45;;;18.50;74.20;;;;;;21172210;28;20056;-65
2022/10/23 17:24:32;;;;;;;5.85;1.85;;;18.30;75.70;;;;;;21172708;28;20411;-63
2022/10/23 17:34:35;;;;;;;6.82;1.88;;;18.30;75.30;;;;;;21171997;28;20051;-63
2022/10/23 17:44:37;;;;;;;4.22;1.60;;;18.20;76.50;;;;;;21169622;28;20504;-63
2022/10/23 17:54:41;;;;;;;4.47;1.83;;;18.30;73.70;;;;;;21168906;28;20121;-63
2022/10/23 18:04:42;;;;;;;6.22;3.03;;;18.10;74.30;;;;;;21168396;28;20047;-66
2022/10/23 18:14:45;;;;;;;4.72;2.00;;;18.00;75.10;;;;;;21166745;28;20130;-65
2022/10/23 18:24:47;;;;;;;4.35;2.35;;;17.90;75.80;;;;;;21167343;28;20109;-65
2022/10/23 18:34:49;;;;;;;6.55;2.97;;;17.90;76.50;;;;;;21165920;28;20051;-65
2022/10/23 18:44:53;;;;;;;;;;;17.80;76.70;;;;;;21166131;28;20059;-63
2022/10/23 18:54:54;;;;;;;5.78;2.38;;;17.70;76.50;;;;;;21146879;28;20006;-63
2022/10/23 19:04:56;;;;;;;5.80;2.85;;;17.70;76.70;;;;;;21164843;28;20043;-64
2022/10/23 19:14:59;;;;;;;4.93;2.72;;;17.80;76.70;;;;;;21146112;28;20047;-63
2022/10/23 19:25:09;;;;;;;8.57;3.70;;;17.90;76.50;;;;;;21163077;28;20092;-61
2022/10/23 19:35:12;;;;;;;8.88;4.85;;;17.80;76.80;;;;;;21162672;28;20308;-66
2022/10/23 19:45:15;;;;;;;7.90;3.77;;;17.70;77.60;;;;;;21161666;28;20511;-62
2022/10/23 19:55:16;;;;;;;7.15;3.35;;;17.60;78.00;;;;;;21161819;28;20514;-64
2022/10/23 20:05:18;;;;;;;9.20;4.20;;;17.70;77.70;;;;;;21162513;28;20499;-64
2022/10/23 20:15:20;;;;;;;8.07;3.65;;;17.70;77.40;;;;;;21165075;28;20142;-63
2022/10/23 20:25:23;;;;;;;7.72;3.58;;;17.70;77.40;;;;;;21158915;28;20044;-64
2022/10/23 20:35:26;;;;;;;8.27;3.47;;;17.60;77.80;;;;;;21176178;28;20047;-64
2022/10/23 20:45:28;;;;;;;9.07;4.43;;;17.60;77.30;;;;;;21175665;28;20047;-62
2022/10/23 20:55:30;;;;;;;9.30;4.97;;;17.50;77.50;;;;;;21174765;28;20052;-62
2022/10/23 21:05:33;;;;;;;7.70;4.70;;;17.40;78.10;;;;;;21174774;28;20521;-64
2022/10/23 21:15:37;;;;;;;9.18;4.28;;;17.50;77.80;;;;;;21173882;28;20056;-64
2022/10/23 21:25:40;;;;;;;10.98;4.68;;;17.50;78.00;;;;;;21172210;28;20052;-64
2022/10/23 21:35:43;;;;;;;9.13;4.70;;;17.50;77.60;;;;;;21153862;28;20074;-64
2022/10/23 21:45:46;;;;;;;7.80;4.85;;;17.40;77.90;;;;;;21170238;28;20515;-64
2022/10/23 21:55:49;;;;;;;9.40;4.73;;;17.50;77.70;;;;;;21170337;28;20476;-63
2022/10/23 22:05:51;;;;;;;11.60;5.28;;;17.40;77.70;;;;;;21168828;28;20048;-63
2022/10/23 22:15:53;;;;;;;11.32;4.78;;;17.40;78.40;;;;;;21167745;28;20051;-63
2022/10/23 22:25:55;;;;;;;8.52;4.78;;;17.30;78.80;;;;;;21167110;28;20519;-63
2022/10/23 22:36:02;;;;;;;7.65;3.60;;;17.40;78.70;;;;;;21165493;28;20055;-63
2022/10/23 22:46:16;;;;;;;12.50;4.45;;;17.40;78.60;;;;;;21165818;28;20484;-63
2022/10/23 22:56:24;;;;;;;9.10;5.00;;;17.40;78.80;;;;;;21165086;28;20052;-63
2022/10/23 23:06:26;;;;;;;11.02;4.55;;;17.40;79.40;;;;;;21164749;28;20177;-63
2022/10/23 23:16:30;;;;;;;8.05;4.10;;;17.20;79.80;;;;;;21145367;28;20047;-64
2022/10/23 23:26:32;;;;;;;8.95;5.05;;;17.20;80.20;;;;;;21163286;28;20048;-64
2022/10/23 23:36:34;;;;;;;7.57;4.82;;;17.20;80.40;;;;;;21162903;28;20130;-63
2022/10/23 23:46:36;;;;;;;8.82;5.03;;;17.20;80.20;;;;;;21161607;28;20097;-64
2022/10/23 23:56:38;;;;;;;9.00;5.40;;;17.10;80.60;;;;;;21177357;28;20105;-63
